Time;durP1;ratioP1;P1;durP2;ratioP2;P2;SDS_P1;SDS_P2;PMS_P1;PMS_P2;Temp;Humidity;BMP_temperature;BMP_pressure;BME280_temperature;BME280_humidity;BME280_pressure;Samples;Min_cycle;Max_cycle;Signal;HPM_P1;HPM_P2
2021/11/08 00:01:35;;;;;;;1.67;1.58;;;;;;;7.02;100.00;99204.34;4896449;29;20028;-76
2021/11/08 00:04:01;;;;;;;1.30;1.27;;;;;;;6.97;100.00;99206.03;4896918;29;20029;-76
2021/11/08 00:06:26;;;;;;;0.85;0.85;;;;;;;6.99;100.00;99204.31;4896646;29;20032;-76
2021/11/08 00:08:52;;;;;;;2.42;1.70;;;;;;;7.03;100.00;99206.06;4897175;29;20024;-76
2021/11/08 00:11:17;;;;;;;0.98;0.98;;;;;;;6.88;100.00;99210.28;4903928;29;20025;-76
2021/11/08 00:13:44;;;;;;;0.90;0.70;;;;;;;6.77;100.00;99209.41;4904915;29;20498;-76
2021/11/08 00:16:23;;;;;;;1.10;1.10;;;;;;;6.77;100.00;99209.41;4896005;29;20522;-77
2021/11/08 00:19:48;;;;;;;3.13;1.20;;;;;;;6.76;100.00;99206.81;4896798;29;20033;-76
2021/11/08 00:21:35;;;;;;;1.02;1.02;;;;;;;6.79;100.00;99202.53;4892637;29;20040;-76
2021/11/08 00:24:01;;;;;;;0.77;0.77;;;;;;;6.77;100.00;99193.94;4896812;29;20025;-76
2021/11/08 00:26:27;;;;;;;0.85;0.80;;;;;;;6.70;100.00;99203.34;4911103;29;20028;-76
2021/11/08 00:28:52;;;;;;;1.10;1.00;;;;;;;6.57;100.00;99208.44;4895945;29;20033;-76
2021/11/08 00:31:18;;;;;;;0.98;0.98;;;;;;;6.51;100.00;99210.97;4896379;29;20087;-76
2021/11/08 00:33:44;;;;;;;1.73;1.63;;;;;;;6.52;100.00;99212.69;4896556;29;20024;-76
2021/11/08 00:36:09;;;;;;;1.67;0.70;;;;;;;6.66;100.00;99216.19;4896667;29;20111;-76
2021/11/08 00:38:35;;;;;;;1.10;1.00;;;;;;;6.70;100.00;99218.78;4896633;29;20169;-76
2021/11/08 00:41:01;;;;;;;2.15;1.25;;;;;;;6.78;100.00;99216.25;4896773;29;20502;-76
2021/11/08 00:43:27;;;;;;;1.25;1.25;;;;;;;6.71;100.00;99229.94;4904222;29;20032;-76
2021/11/08 00:45:52;;;;;;;1.75;1.65;;;;;;;6.63;100.00;99222.22;4919034;29;20023;-76
2021/11/08 00:48:22;;;;;;;1.60;1.50;;;;;;;6.64;100.00;99220.50;4918673;29;20050;-76
2021/11/08 00:50:49;;;;;;;1.02;1.02;;;;;;;6.68;100.00;99211.94;4918734;29;20027;-76
2021/11/08 00:53:15;;;;;;;1.30;1.30;;;;;;;6.82;100.00;99218.00;4918606;29;20039;-76
2021/11/08 00:55:42;;;;;;;0.85;0.85;;;;;;;6.78;100.00;99218.00;4905407;29;20033;-76
2021/11/08 00:58:14;;;;;;;1.17;1.17;;;;;;;6.85;100.00;99220.56;4899751;29;20104;-76
2021/11/08 05:30:57;;;;;;;1.38;1.30;;;;;;;5.07;100.00;99344.16;4861803;29;20565;-75
2021/11/08 05:33:23;;;;;;;1.23;1.23;;;;;;;4.78;100.00;99350.63;4861842;29;20093;-72
2021/11/08 05:35:48;;;;;;;4.40;1.23;;;;;;;4.82;100.00;99348.13;4861614;29;20021;-72
2021/11/08 05:38:14;;;;;;;1.55;1.48;;;;;;;4.79;100.00;99348.09;4861878;29;20046;-72
2021/11/08 05:40:40;;;;;;;6.35;1.25;;;;;;;4.86;100.00;99355.03;4861802;29;20040;-72
2021/11/08 05:43:07;;;;;;;2.83;2.20;;;;;;;4.97;100.00;99351.75;4870809;29;20025;-71
2021/11/08 05:45:34;;;;;;;2.58;2.22;;;;;;;4.87;100.00;99351.59;4880094;29;20029;-71
2021/11/08 05:48:02;;;;;;;1.55;1.55;;;;;;;4.89;100.00;99357.66;4880050;29;20032;-72
2021/11/08 05:50:29;;;;;;;2.17;0.95;;;;;;;4.79;100.00;99358.38;4880293;29;20054;-71
2021/11/08 05:52:55;;;;;;;1.73;1.63;;;;;;;4.85;100.00;99355.88;4876540;29;20379;-71
2021/11/08 06:50:13;;;;;;;1.90;1.80;;;;;;;4.17;100.00;99395.84;4878985;29;20498;-75
2021/11/08 06:52:39;;;;;;;1.75;1.52;;;;;;;4.49;100.00;99404.94;4875578;29;20050;-75
2021/11/08 06:55:06;;;;;;;1.67;1.63;;;;;;;4.69;100.00;99396.69;4870957;29;20021;-75
2021/11/08 06:57:46;;;;;;;4.18;2.25;;;;;;;4.66;100.00;99406.91;4879074;29;20112;-75
2021/11/08 07:00:13;;;;;;;;;;;;;;;4.68;100.00;99411.22;4879210;29;20372;-75
2021/11/08 07:02:38;;;;;;;1.27;1.27;;;;;;;4.63;100.00;99407.72;4878657;29;19983;-75
2021/11/08 07:05:04;;;;;;;0.90;0.90;;;;;;;4.70;100.00;99414.69;4879065;29;20029;-75
2021/11/08 07:07:29;;;;;;;2.88;2.15;;;;;;;4.53;100.00;99408.41;4878492;29;20402;-75
2021/11/08 07:09:55;;;;;;;2.30;2.17;;;;;;;4.48;100.00;99407.47;4878809;29;20120;-75
2021/11/08 07:12:20;;;;;;;2.78;1.30;;;;;;;4.49;100.00;99419.47;4873549;29;20025;-75
2021/11/08 07:14:45;;;;;;;1.45;1.45;;;;;;;4.53;100.00;99406.72;4874554;29;20029;-75
2021/11/08 07:17:11;;;;;;;2.22;2.05;;;;;;;4.65;100.00;99408.63;4878288;29;20050;-75
2021/11/08 07:19:37;;;;;;;1.00;1.00;;;;;;;4.67;100.00;99414.63;4878895;29;20032;-75
2021/11/08 07:22:03;;;;;;;1.67;1.58;;;;;;;4.88;100.00;99420.13;4875250;29;20066;-75
2021/11/08 07:24:28;;;;;;;2.85;2.10;;;;;;;5.13;100.00;99425.59;4871068;29;20068;-75
2021/11/08 07:26:54;;;;;;;2.70;2.00;;;;;;;5.14;99.02;99428.19;4878436;29;20031;-71
2021/11/08 07:29:21;;;;;;;2.50;2.30;;;;;;;5.14;98.82;99429.91;4878555;29;20025;-72
2021/11/08 07:31:47;;;;;;;1.63;1.52;;;;;;;5.08;99.63;99427.25;4878089;29;20036;-71
2021/11/08 07:34:13;;;;;;;2.65;2.28;;;;;;;5.02;99.94;99435.69;4878380;29;20048;-71
2021/11/08 07:36:38;;;;;;;2.08;1.98;;;;;;;5.07;100.00;99435.78;4878339;29;20036;-71
2021/11/08 07:39:05;;;;;;;2.97;2.78;;;;;;;5.24;99.91;99449.72;4878294;29;20033;-71
2021/11/08 07:41:30;;;;;;;1.60;1.38;;;;;;;5.39;99.25;99444.81;4875799;29;20021;-71
2021/11/08 07:43:55;;;;;;;3.08;2.78;;;;;;;5.54;98.94;99438.13;4870396;29;20035;-71
2021/11/08 07:46:21;;;;;;;2.88;2.33;;;;;;;6.12;96.47;99428.56;4878601;29;20060;-71
2021/11/08 07:48:47;;;;;;;3.65;2.25;;;;;;;6.50;95.04;99430.63;4878187;29;20120;-71
2021/11/08 07:51:15;;;;;;;1.83;1.73;;;;;;;6.64;93.90;99429.91;4883633;29;20033;-72
2021/11/08 07:53:41;;;;;;;2.97;2.25;;;;;;;7.46;90.81;99419.28;4874645;29;20507;-72
2021/11/08 07:56:07;;;;;;;5.07;3.65;;;;;;;8.94;81.19;99421.28;4883087;29;20029;-71
2021/11/08 07:58:33;;;;;;;3.03;2.38;;;;;;;11.07;72.81;99413.28;4884247;29;20041;-72
2021/11/08 08:00:59;;;;;;;3.10;2.28;;;;;;;13.39;63.22;99403.03;4884284;29;20061;-70
2021/11/08 08:03:26;;;;;;;4.20;1.90;;;;;;;14.13;58.54;99392.81;4884125;29;20037;-72
2021/11/08 08:05:55;;;;;;;2.50;2.30;;;;;;;13.21;61.03;99408.56;4884565;29;20069;-72
2021/11/08 08:08:21;;;;;;;4.95;1.90;;;;;;;10.95;69.69;99422.91;4884362;29;20028;-72
2021/11/08 08:10:50;;;;;;;3.25;2.35;;;;;;;9.99;72.57;99417.50;4883756;29;20051;-72
2021/11/08 08:13:19;;;;;;;1.73;1.63;;;;;;;9.49;77.54;99421.19;4876552;29;20028;-72
2021/11/08 08:15:45;;;;;;;1.80;1.60;;;;;;;9.09;79.57;99424.72;4883805;29;20108;-71
2021/11/08 08:18:11;;;;;;;2.55;2.35;;;;;;;8.20;82.39;99424.69;4884382;29;20129;-71
2021/11/08 08:20:36;;;;;;;3.50;2.75;;;;;;;7.25;86.98;99434.63;4884092;29;20094;-72
2021/11/08 08:23:02;;;;;;;2.25;2.05;;;;;;;7.38;89.30;99433.84;4878248;29;20036;-72
2021/11/08 08:25:27;;;;;;;2.28;2.08;;;;;;;7.45;89.33;99425.28;4877621;29;20104;-71
2021/11/08 08:27:53;;;;;;;3.13;2.35;;;;;;;7.20;90.81;99437.19;4884145;29;20029;-72
2021/11/08 08:30:19;;;;;;;5.38;2.35;;;;;;;7.29;91.29;99426.06;4883977;29;20032;-72
2021/11/08 08:32:44;;;;;;;7.82;3.60;;;;;;;7.14;92.23;99436.28;4884082;29;20088;-71
2021/11/08 08:35:10;;;;;;;2.38;1.92;;;;;;;7.47;91.37;99436.47;4883821;29;20530;-72
2021/11/08 08:37:36;;;;;;;3.25;2.30;;;;;;;7.25;91.77;99434.63;4884121;29;20039;-72
2021/11/08 08:40:03;;;;;;;2.95;2.63;;;;;;;7.70;90.99;99423.69;4883939;29;20443;-71
2021/11/08 08:42:28;;;;;;;3.35;2.92;;;;;;;7.81;89.28;99421.13;4877792;29;20029;-72
2021/11/08 08:44:54;;;;;;;1.67;1.58;;;;;;;8.67;86.31;99426.50;4881209;29;20028;-72
2021/11/08 08:47:20;;;;;;;8.23;2.33;;;;;;;10.48;80.22;99416.38;4883959;29;20398;-72
2021/11/08 08:49:47;;;;;;;2.90;1.92;;;;;;;13.74;63.53;99409.31;4883962;29;20104;-72
2021/11/08 08:52:13;;;;;;;2.00;1.90;;;;;;;13.26;63.42;99417.19;4880389;29;20117;-72
2021/11/08 08:54:39;;;;;;;3.33;3.00;;;;;;;14.00;61.02;99412.19;4876037;29;20088;-70
2021/11/08 08:57:06;;;;;;;3.30;2.25;;;;;;;13.88;61.11;99417.69;4883669;29;20116;-70
2021/11/08 08:59:31;;;;;;;2.83;1.88;;;;;;;15.01;58.02;99414.22;4884058;29;20029;-70
2021/11/08 09:01:57;;;;;;;3.53;2.47;;;;;;;17.24;51.47;99412.72;4880819;29;20032;-70
2021/11/08 09:04:24;;;;;;;2.38;1.80;;;;;;;18.52;48.43;99412.31;4881117;29;20021;-70
2021/11/08 09:06:50;;;;;;;4.72;2.28;;;;;;;20.48;42.24;99415.09;4880759;29;20040;-70
2021/11/08 09:09:15;;;;;;;3.47;1.70;;;;;;;20.44;42.78;99415.28;4880942;29;20037;-70
2021/11/08 09:11:41;;;;;;;1.73;1.60;;;;;;;21.95;39.08;99411.97;4879237;29;20079;-71
2021/11/08 09:14:06;;;;;;;2.65;1.73;;;;;;;22.15;38.25;99413.56;4871669;29;20044;-70
2021/11/08 09:16:34;;;;;;;1.42;1.30;;;;;;;20.83;40.03;99419.56;4881066;29;20248;-71
2021/11/08 09:19:00;;;;;;;2.42;2.10;;;;;;;18.49;45.68;99417.69;4880729;29;20032;-70
2021/11/08 09:21:28;;;;;;;2.53;1.50;;;;;;;18.86;45.50;99417.06;4880548;29;20029;-70
2021/11/08 09:23:59;;;;;;;3.22;2.00;;;;;;;19.25;43.66;99417.16;4866849;29;20026;-70
2021/11/08 09:26:26;;;;;;;1.85;1.20;;;;;;;16.82;47.37;99431.56;4880474;29;20029;-70
2021/11/08 09:28:53;;;;;;;3.05;1.70;;;;;;;17.43;48.00;99428.63;4880394;29;20029;-70
2021/11/08 09:31:20;;;;;;;7.15;1.65;;;;;;;17.32;47.89;99425.56;4880356;29;20021;-70
2021/11/08 09:33:46;;;;;;;4.03;1.20;;;;;;;18.90;45.03;99425.66;4880227;29;20028;-70
2021/11/08 09:36:13;;;;;;;4.70;2.08;;;;;;;18.84;44.38;99420.66;4880327;29;20100;-70
2021/11/08 09:38:48;;;;;;;4.30;2.05;;;;;;;20.75;39.78;99418.16;4880192;29;20427;-70
2021/11/08 09:41:16;;;;;;;3.05;1.63;;;;;;;22.25;36.76;99415.63;4879447;29;20428;-71
2021/11/08 09:43:43;;;;;;;2.38;1.60;;;;;;;22.92;35.04;99426.81;4872249;29;20448;-71
2021/11/08 09:46:09;;;;;;;3.53;1.70;;;;;;;20.72;39.31;99422.72;4880175;29;20029;-71
2021/11/08 09:48:39;;;;;;;1.67;1.50;;;;;;;19.54;42.55;99430.81;4858185;29;20104;-70
2021/11/08 09:51:07;;;;;;;0.77;0.77;;;;;;;18.07;44.66;99436.78;4859918;29;20041;-72
2021/11/08 09:53:33;;;;;;;0.70;0.70;;;;;;;15.87;48.99;99444.09;4857929;29;20058;-72
2021/11/08 09:56:00;;;;;;;0.60;0.57;;;;;;;15.40;48.74;99446.22;4866690;29;20053;-72
2021/11/08 09:58:26;;;;;;;1.48;1.15;;;;;;;12.03;57.85;99455.47;4860000;29;20029;-72
2021/11/08 10:00:55;;;;;;;2.33;0.63;;;;;;;12.33;58.88;99455.97;4861871;29;20110;-72
2021/11/08 10:03:24;;;;;;;2.88;2.15;;;;;;;11.46;61.31;99462.16;4868747;29;20391;-72
2021/11/08 10:05:52;;;;;;;2.25;1.35;;;;;;;10.60;62.97;99464.69;4860943;29;20162;-72
2021/11/08 10:08:26;;;;;;;11.00;1.95;;;;;;;10.89;65.62;99449.75;4861518;29;20026;-72
2021/11/08 10:10:54;;;;;;;0.50;0.50;;;;;;;10.30;64.53;99458.81;4861176;29;20433;-72
2021/11/08 10:13:24;;;;;;;3.78;2.00;;;;;;;9.69;67.80;99456.47;4871409;29;20028;-72
2021/11/08 10:15:53;;;;;;;8.40;2.72;;;;;;;10.13;67.58;99455.44;4867114;29;20640;-72
2021/11/08 10:18:21;;;;;;;1.73;1.00;;;;;;;9.77;70.20;99460.78;4868307;29;20037;-72
2021/11/08 10:20:49;;;;;;;1.73;1.52;;;;;;;9.59;70.85;99452.22;4860423;29;20030;-72
2021/11/08 10:23:18;;;;;;;0.77;0.77;;;;;;;9.72;71.99;99453.91;4863374;29;20509;-72
2021/11/08 10:25:45;;;;;;;2.30;1.98;;;;;;;10.25;69.61;99450.19;4879280;29;20029;-72
2021/11/08 10:28:16;;;;;;;4.38;2.40;;;;;;;11.46;66.17;99442.28;4871233;29;20040;-72
2021/11/08 10:30:45;;;;;;;2.70;1.55;;;;;;;14.74;54.39;99428.78;4867063;29;20525;-72
2021/11/08 10:33:23;;;;;;;3.22;1.45;;;;;;;14.60;52.44;99435.22;4860115;29;20053;-72
2021/11/08 10:35:51;;;;;;;2.42;1.77;;;;;;;15.70;50.06;99425.41;4860458;29;20033;-73
2021/11/08 10:38:20;;;;;;;2.50;1.02;;;;;;;13.07;56.20;99442.66;4860586;29;20105;-73
2021/11/08 10:40:58;;;;;;;5.40;1.40;;;;;;;12.69;60.27;99440.69;4853130;29;20037;-72
2021/11/08 10:43:38;;;;;;;4.75;2.22;;;;;;;11.41;62.76;99458.75;4845707;29;20030;-72
2021/11/08 10:46:13;;;;;;;2.22;1.42;;;;;;;9.78;68.26;99464.22;4849510;29;20036;-72
2021/11/08 10:48:44;;;;;;;3.67;1.45;;;;;;;9.64;69.18;99466.00;4855558;29;20056;-72
2021/11/08 10:51:12;;;;;;;1.45;1.00;;;;;;;12.13;61.41;99444.94;4853562;29;20049;-72
2021/11/08 10:53:47;;;;;;;3.03;1.60;;;;;;;13.81;54.28;99458.63;4855270;29;20017;-72
2021/11/08 10:56:14;;;;;;;5.03;2.17;;;;;;;11.97;58.81;99471.13;4860333;29;20463;-72
2021/11/08 10:58:46;;;;;;;1.38;0.90;;;;;;;11.65;60.16;99462.81;4851555;29;20053;-72
2021/11/08 11:01:28;;;;;;;0.60;0.60;;;;;;;10.54;64.12;99473.34;4852571;29;20030;-72
2021/11/08 11:03:55;;;;;;;3.00;1.80;;;;;;;9.95;66.40;99477.94;4852747;29;20033;-72
2021/11/08 11:06:53;;;;;;;0.82;0.77;;;;;;;10.19;65.33;99460.56;4852870;29;20026;-72
2021/11/08 11:09:22;;;;;;;2.55;1.02;;;;;;;9.58;68.00;99466.88;4848607;29;20042;-72
2021/11/08 11:12:03;;;;;;;1.45;1.35;;;;;;;9.26;69.52;99469.53;4858780;29;20498;-72
2021/11/08 11:14:36;;;;;;;2.20;1.95;;;;;;;11.79;62.39;99453.13;4847648;29;20037;-72
2021/11/08 11:17:07;;;;;;;3.92;0.73;;;;;;;11.58;60.23;99457.72;4859918;29;20044;-72
2021/11/08 11:19:33;;;;;;;1.65;1.15;;;;;;;13.26;56.84;99451.88;4860076;29;20040;-72
2021/11/08 11:22:03;;;;;;;3.88;1.83;;;;;;;16.76;46.85;99436.16;4859809;29;20057;-72
2021/11/08 11:24:46;;;;;;;2.53;1.30;;;;;;;17.88;42.95;99441.00;4859151;29;20058;-72
2021/11/08 11:27:28;;;;;;;1.67;1.27;;;;;;;19.20;39.19;99437.53;4859854;29;20029;-72
2021/11/08 11:30:11;;;;;;;2.65;1.33;;;;;;;18.77;41.35;99432.34;4933662;23;20052;-74
2021/11/08 11:32:37;;;;;;;21.15;9.80;;;;;;;19.37;38.81;99434.16;4877125;29;20029;-75
2021/11/08 11:35:15;;;;;;;1.48;0.98;;;;;;;19.52;38.48;99427.38;4887178;29;20033;-76
2021/11/08 11:37:56;;;;;;;1.17;0.70;;;;;;;18.32;40.79;99430.59;4895738;29;20509;-76
2021/11/08 11:40:23;;;;;;;4.57;0.70;;;;;;;18.07;39.52;99431.53;4896776;29;20079;-77
2021/11/08 11:42:55;;;;;;;1.48;1.38;;;;;;;14.59;48.71;99438.69;4888328;29;20383;-76
2021/11/08 11:45:21;;;;;;;6.20;0.90;;;;;;;12.80;52.05;99438.75;4859776;29;20032;-75
2021/11/08 11:48:04;;;;;;;1.75;1.60;;;;;;;12.59;54.64;99435.63;4859698;29;20030;-76
2021/11/08 11:50:32;;;;;;;1.90;0.88;;;;;;;12.82;53.38;99431.81;4859740;29;20026;-76
2021/11/08 11:52:58;;;;;;;1.75;1.55;;;;;;;13.62;51.81;99432.09;4859397;29;20052;-75
2021/11/08 11:55:24;;;;;;;2.35;1.08;;;;;;;15.21;48.28;99422.38;4859460;29;20033;-76
2021/11/08 11:57:49;;;;;;;1.35;0.63;;;;;;;15.76;46.02;99412.16;4859521;29;20029;-76
2021/11/08 12:00:15;;;;;;;2.03;1.02;;;;;;;16.76;43.88;99420.47;4859559;29;20021;-76
2021/11/08 12:02:42;;;;;;;5.40;1.27;;;;;;;17.56;41.10;99416.81;4863745;29;20043;-76
2021/11/08 12:05:08;;;;;;;0.90;0.90;;;;;;;16.28;44.42;99408.00;4887542;29;20032;-77
2021/11/08 12:07:33;;;;;;;0.85;0.85;;;;;;;15.71;46.03;99414.91;4896680;29;20080;-76
2021/11/08 12:10:05;;;;;;;1.67;0.73;;;;;;;14.76;47.91;99408.75;4896644;29;20028;-76
2021/11/08 12:12:30;;;;;;;1.10;0.55;;;;;;;14.16;48.68;99407.50;4889009;29;20478;-76
2021/11/08 12:15:09;;;;;;;2.88;1.15;;;;;;;13.79;49.52;99412.66;4892522;29;20120;-76
2021/11/08 12:17:41;;;;;;;1.27;1.15;;;;;;;13.56;52.70;99415.72;4896663;29;20104;-76
2021/11/08 12:20:10;;;;;;;1.15;0.85;;;;;;;12.69;54.08;99415.53;4896598;29;20451;-75
2021/11/08 12:22:36;;;;;;;5.45;1.67;;;;;;;11.88;55.54;99406.31;4895080;29;20028;-76
2021/11/08 12:25:09;;;;;;;2.47;0.77;;;;;;;11.18;59.08;99410.59;4896570;29;20024;-75
2021/11/08 12:27:55;;;;;;;1.75;1.25;;;;;;;10.86;59.37;99413.47;4896478;29;20067;-75
2021/11/08 12:30:27;;;;;;;6.07;1.15;;;;;;;11.32;60.76;99407.84;4895145;29;20521;-76
2021/11/08 12:32:59;;;;;;;1.45;1.27;;;;;;;11.35;58.25;99405.19;4889050;29;20383;-76
2021/11/08 12:35:36;;;;;;;0.82;0.60;;;;;;;11.49;59.00;99403.31;4888734;29;20025;-75
2021/11/08 12:38:18;;;;;;;0.80;0.80;;;;;;;11.19;58.92;99407.09;4899893;29;20025;-76
2021/11/08 12:40:44;;;;;;;0.80;0.68;;;;;;;11.24;60.24;99404.47;4900007;29;20033;-75
2021/11/08 12:43:10;;;;;;;0.47;0.47;;;;;;;10.68;59.29;99398.06;4890927;29;20035;-75
2021/11/08 12:45:41;;;;;;;0.82;0.82;;;;;;;10.61;61.20;99394.69;4900296;29;20017;-77
2021/11/08 12:48:10;;;;;;;0.45;0.45;;;;;;;10.26;60.41;99401.00;4899936;29;20032;-72
2021/11/08 12:50:43;;;;;;;1.95;1.48;;;;;;;10.03;59.99;99403.69;4899773;29;20494;-77
2021/11/08 12:53:39;;;;;;;0.60;0.40;;;;;;;9.93;63.23;99396.00;4899689;29;20032;-76
2021/11/08 12:56:24;;;;;;;0.55;0.55;;;;;;;9.85;61.69;99387.41;4899726;29;20041;-73
2021/11/08 12:58:57;;;;;;;0.93;0.93;;;;;;;9.71;63.37;99390.91;4899675;29;20028;-73
2021/11/08 13:01:38;;;;;;;4.15;0.82;;;;;;;9.58;63.11;99393.56;4899495;29;20032;-73
2021/11/08 13:04:06;;;;;;;2.17;1.08;;;;;;;9.56;63.69;99390.13;4890889;29;20024;-73
2021/11/08 13:06:34;;;;;;;1.00;0.82;;;;;;;9.59;61.86;99395.28;4893557;29;20068;-73
2021/11/08 13:09:07;;;;;;;0.88;0.88;;;;;;;9.49;63.68;99395.31;4899526;29;20485;-73
2021/11/08 13:11:49;;;;;;;1.95;1.30;;;;;;;9.51;63.72;99393.56;4893012;29;20048;-76
2021/11/08 13:14:26;;;;;;;0.82;0.77;;;;;;;10.02;65.42;99386.44;4888461;29;20033;-73
2021/11/08 13:17:05;;;;;;;1.33;1.08;;;;;;;9.98;66.03;99384.72;4880685;29;20397;-74
2021/11/08 13:19:31;;;;;;;3.80;2.27;;;;;;;9.89;64.58;99392.53;4879480;29;20077;-75
2021/11/08 13:21:57;;;;;;;4.15;1.02;;;;;;;9.93;64.49;99394.25;4880343;29;20021;-76
2021/11/08 13:24:24;;;;;;;0.75;0.75;;;;;;;9.94;65.22;99393.38;4880763;29;20103;-73
2021/11/08 13:26:49;;;;;;;1.08;1.08;;;;;;;10.03;62.97;99388.16;4880765;29;20025;-77
2021/11/08 13:29:17;;;;;;;2.40;1.33;;;;;;;9.91;64.61;99388.25;4880475;29;20035;-75
2021/11/08 13:31:43;;;;;;;3.88;2.50;;;;;;;9.94;64.97;99393.38;4880309;29;20029;-76
2021/11/08 13:34:08;;;;;;;3.58;1.60;;;;;;;9.96;62.57;99391.66;4888014;29;20489;-72
2021/11/08 13:36:34;;;;;;;3.03;0.80;;;;;;;10.01;62.51;99395.09;4893366;29;20051;-72
2021/11/08 13:39:00;;;;;;;1.73;1.38;;;;;;;10.13;61.41;99393.28;4897768;29;20375;-75
2021/11/08 13:41:30;;;;;;;1.15;0.93;;;;;;;9.80;63.82;99395.19;4897679;29;20025;-73
2021/11/08 13:44:01;;;;;;;3.00;1.25;;;;;;;9.68;65.14;99405.59;4891384;29;20052;-73
2021/11/08 13:46:40;;;;;;;1.50;1.40;;;;;;;9.60;63.83;99407.34;4898994;29;20513;-73
2021/11/08 13:49:15;;;;;;;1.80;1.35;;;;;;;9.42;63.42;99406.53;4896983;29;20060;-73
2021/11/08 13:51:57;;;;;;;0.73;0.73;;;;;;;9.47;61.89;99402.22;4898684;29;20524;-73
2021/11/08 13:54:28;;;;;;;1.45;1.38;;;;;;;9.58;62.83;99398.75;4898845;29;20087;-73
2021/11/08 13:56:56;;;;;;;0.60;0.60;;;;;;;9.68;62.61;99396.13;4899318;29;20459;-73
2021/11/08 13:59:27;;;;;;;9.02;1.23;;;;;;;9.76;62.54;99398.66;4898557;29;20455;-73
2021/11/08 14:01:59;;;;;;;1.75;0.88;;;;;;;9.74;62.29;99395.22;4897410;29;20394;-77
2021/11/08 14:04:49;;;;;;;0.57;0.57;;;;;;;9.95;61.57;99395.09;4886869;29;20025;-73
2021/11/08 14:07:14;;;;;;;;;;;;;;;9.92;62.71;99395.13;4898554;29;20021;-73
2021/11/08 14:09:43;;;;;;;8.23;1.33;;;;;;;9.94;61.94;99408.06;4897011;29;19922;-75
2021/11/08 14:12:14;;;;;;;0.52;0.52;;;;;;;9.94;64.34;99403.72;4894989;29;20091;-73
2021/11/08 14:14:40;;;;;;;7.68;0.60;;;;;;;9.92;63.79;99405.47;4892140;29;20039;-73
2021/11/08 14:17:21;;;;;;;2.08;1.20;;;;;;;9.73;62.66;99417.66;4897225;29;20420;-77
2021/11/08 14:19:55;;;;;;;0.80;0.80;;;;;;;9.75;63.55;99417.63;4898309;29;20475;-73
2021/11/08 14:22:30;;;;;;;3.10;0.88;;;;;;;9.79;63.45;99420.19;4898026;29;20168;-75
2021/11/08 14:25:00;;;;;;;2.17;1.70;;;;;;;9.78;62.44;99420.22;4898303;29;20021;-79
2021/11/08 14:27:28;;;;;;;0.70;0.70;;;;;;;9.84;62.16;99420.19;4897056;29;20029;-72
2021/11/08 14:29:54;;;;;;;0.98;0.88;;;;;;;9.80;61.54;99426.22;4897978;29;20116;-72
2021/11/08 14:32:23;;;;;;;9.20;0.88;;;;;;;9.83;62.27;99425.38;4896199;29;20427;-80
2021/11/08 14:34:56;;;;;;;1.88;0.70;;;;;;;9.71;62.67;99421.09;4887307;29;20116;-76
2021/11/08 14:37:27;;;;;;;0.70;0.70;;;;;;;9.37;63.54;99430.69;4860862;29;20038;-72
2021/11/08 14:39:53;;;;;;;1.10;1.00;;;;;;;9.50;62.46;99428.06;4859433;29;20029;-73
2021/11/08 14:42:22;;;;;;;1.33;1.20;;;;;;;9.56;61.27;99431.50;4880449;29;20036;-72
2021/11/08 14:44:55;;;;;;;1.08;1.00;;;;;;;9.56;61.10;99431.50;4892444;29;20029;-77
2021/11/08 14:47:23;;;;;;;1.55;1.30;;;;;;;9.23;62.12;99430.72;4896771;29;20043;-74
2021/11/08 14:50:11;;;;;;;1.20;0.88;;;;;;;9.24;64.19;99429.88;4896328;29;20122;-73
2021/11/08 14:52:36;;;;;;;0.65;0.65;;;;;;;9.28;62.25;99431.56;4896524;29;20111;-74
2021/11/08 14:55:09;;;;;;;0.50;0.50;;;;;;;8.95;60.73;99428.22;4896609;29;20081;-77
2021/11/08 14:57:36;;;;;;;0.93;0.88;;;;;;;8.87;62.23;99431.66;4896529;29;20021;-73
2021/11/08 15:00:09;;;;;;;0.57;0.50;;;;;;;8.70;61.22;99436.81;4896972;29;20025;-75
2021/11/08 15:02:34;;;;;;;0.80;0.80;;;;;;;8.72;63.07;99445.44;4893611;29;20028;-76
2021/11/08 15:05:00;;;;;;;0.73;0.63;;;;;;;8.70;62.60;99436.81;4887682;29;20112;-71
2021/11/08 15:07:35;;;;;;;7.30;1.95;;;;;;;8.73;63.56;99426.47;4897591;29;20111;-73
2021/11/08 15:10:06;;;;;;;1.35;0.82;;;;;;;8.61;64.01;99432.53;4897475;29;20089;-72
2021/11/08 15:12:37;;;;;;;0.90;0.90;;;;;;;8.71;61.22;99433.38;4891082;29;20029;-71
2021/11/08 15:15:13;;;;;;;1.48;1.33;;;;;;;8.70;60.35;99431.63;4895580;29;20025;-72
2021/11/08 15:17:47;;;;;;;4.90;2.08;;;;;;;8.73;61.12;99436.81;4896251;29;20455;-72
2021/11/08 15:20:13;;;;;;;0.70;0.70;;;;;;;8.70;62.83;99437.69;4897494;29;20024;-75
2021/11/08 15:22:39;;;;;;;2.97;0.98;;;;;;;8.68;62.67;99438.53;4897081;29;20028;-74
2021/11/08 15:25:37;;;;;;;0.85;0.85;;;;;;;8.63;63.16;99432.50;4891536;29;20021;-72
2021/11/08 15:28:08;;;;;;;1.70;1.58;;;;;;;8.58;63.79;99436.81;4878952;29;20037;-76
2021/11/08 15:30:36;;;;;;;1.63;1.52;;;;;;;8.55;64.15;99441.97;4891853;29;20040;-76
2021/11/08 15:33:10;;;;;;;0.80;0.80;;;;;;;8.52;64.53;99436.81;4889057;29;20032;-72
2021/11/08 15:35:39;;;;;;;0.77;0.77;;;;;;;8.41;66.47;99435.09;4895568;29;20063;-73
2021/11/08 15:38:10;;;;;;;0.65;0.65;;;;;;;8.07;68.70;99433.25;4885958;29;20060;-72
2021/11/08 15:40:36;;;;;;;0.60;0.60;;;;;;;8.08;70.32;99435.00;4878530;29;20445;-75
2021/11/08 15:43:03;;;;;;;1.30;1.00;;;;;;;7.89;71.18;99434.94;4892241;29;20107;-76
2021/11/08 15:45:30;;;;;;;0.52;0.52;;;;;;;7.86;69.95;99434.91;4877140;29;20112;-72
2021/11/08 15:47:57;;;;;;;0.80;0.80;;;;;;;7.78;68.89;99426.28;4891956;29;20029;-76
2021/11/08 15:50:24;;;;;;;1.33;1.15;;;;;;;7.73;66.19;99435.72;4896961;29;20059;-72
2021/11/08 15:52:52;;;;;;;6.35;2.13;;;;;;;7.71;69.51;99440.88;4880240;29;20061;-73
2021/11/08 15:55:18;;;;;;;1.38;0.95;;;;;;;7.64;71.45;99448.56;4889121;29;20036;-72
2021/11/08 15:57:43;;;;;;;4.43;2.85;;;;;;;7.24;74.22;99453.50;4883487;29;20505;-73
2021/11/08 16:00:10;;;;;;;2.10;2.00;;;;;;;7.13;75.83;99455.16;4895467;29;20496;-73
2021/11/08 16:02:37;;;;;;;5.15;4.03;;;;;;;6.94;78.16;99455.03;4891475;29;20024;-75
2021/11/08 16:05:04;;;;;;;1.42;1.42;;;;;;;6.85;78.97;99454.97;4888948;29;20020;-74
2021/11/08 16:07:31;;;;;;;0.90;0.90;;;;;;;6.70;80.27;99457.41;4891463;29;20482;-72
2021/11/08 16:09:56;;;;;;;4.10;2.70;;;;;;;6.59;80.77;99466.75;4880731;29;20033;-75
2021/11/08 16:12:21;;;;;;;2.22;1.85;;;;;;;6.46;80.72;99472.63;4888720;29;20378;-74
2021/11/08 16:14:47;;;;;;;8.68;1.48;;;;;;;6.32;82.64;99480.22;4887212;29;20591;-71
2021/11/08 16:17:12;;;;;;;1.27;1.27;;;;;;;6.24;82.59;99472.44;4898503;29;20474;-71
2021/11/08 16:19:37;;;;;;;1.15;1.15;;;;;;;6.18;82.42;99480.06;4894560;29;20420;-74
2021/11/08 16:22:03;;;;;;;1.00;1.00;;;;;;;6.07;82.84;99481.66;4889068;29;20482;-75
2021/11/08 16:24:28;;;;;;;3.78;2.38;;;;;;;6.02;83.37;99478.19;4881714;29;20025;-72
2021/11/08 16:26:53;;;;;;;3.15;2.33;;;;;;;5.82;84.21;99476.19;4881896;29;20398;-75
2021/11/08 16:29:21;;;;;;;3.40;1.88;;;;;;;5.55;84.72;99478.41;4881384;29;20483;-74
2021/11/08 16:32:02;;;;;;;1.13;1.13;;;;;;;5.52;84.46;99475.81;4881352;29;20029;-73
2021/11/08 16:34:28;;;;;;;4.43;3.53;;;;;;;5.44;84.28;99479.97;4881601;29;20021;-69
2021/11/08 16:36:53;;;;;;;6.22;2.00;;;;;;;5.31;84.42;99482.34;4881425;29;20089;-74
2021/11/08 16:39:20;;;;;;;2.63;1.55;;;;;;;5.14;84.50;99476.13;4881873;29;20036;-71
2021/11/08 16:41:46;;;;;;;1.73;1.65;;;;;;;5.05;85.14;99483.69;4887716;29;20169;-71
2021/11/08 16:44:12;;;;;;;1.35;1.30;;;;;;;5.02;85.92;99483.63;4892420;29;20029;-70
2021/11/08 16:46:37;;;;;;;1.15;1.15;;;;;;;5.04;85.79;99494.81;4899943;29;20394;-71
2021/11/08 16:49:03;;;;;;;1.50;1.40;;;;;;;5.02;85.55;99501.59;4899822;29;20029;-75
2021/11/08 16:51:30;;;;;;;1.13;1.13;;;;;;;4.93;86.46;99509.16;4887358;29;20542;-71
2021/11/08 16:54:03;;;;;;;1.95;1.08;;;;;;;4.93;84.81;99509.16;4896927;29;20439;-71
2021/11/08 16:56:30;;;;;;;1.63;1.35;;;;;;;4.88;85.57;99504.84;4899789;29;20481;-75
2021/11/08 16:58:56;;;;;;;1.65;1.55;;;;;;;4.80;85.92;99510.69;4899738;29;20036;-70
2021/11/08 17:01:22;;;;;;;6.25;4.20;;;;;;;4.74;85.95;99514.00;4899516;29;20029;-70
2021/11/08 17:03:48;;;;;;;18.50;9.20;;;;;;;4.74;85.85;99514.00;4899847;29;20029;-71
2021/11/08 17:06:17;;;;;;;19.25;10.23;;;;;;;4.66;86.51;99515.56;4899787;29;20057;-70
2021/11/08 17:08:48;;;;;;;13.50;7.45;;;;;;;4.58;86.30;99522.25;4898168;29;20048;-71
2021/11/08 17:13:52;;;;;;;22.38;9.50;;;;;;;4.53;87.10;99536.72;4891822;29;20028;-75